Terminal Aerodrome Forecast
Issued by NWS Melbourne, FL

Home | Current Version | Previous Version | Text Only | Print | Product List | Glossary On
Versions: 1 2 3 4 5 6 7 8 9 10 11 12
000
FTUS42 KMLB 040538
TAFVRB
TAF
KVRB 040538Z 0406/0506 25003KT P6SM FEW120 SCT250
     FM041500 12010KT P6SM VCTS SCT030CB SCT080
      TEMPO 0416/0419 3SM TSRA BKN020CB OVC040
     FM041900 10010KT P6SM SCT035 BKN060
     FM050000 14004KT P6SM SCT040 OVC100=

USA.gov is the U.S. government's official web portal to all federal, state and local government web resources and services.